createdAt,value
2019-03-24T00:01:41.010Z,6.00
2019-03-24T00:04:39.888Z,7.17
2019-03-24T00:07:44.538Z,7.00
2019-03-24T00:10:49.359Z,7.17
2019-03-24T00:13:53.967Z,7.07
2019-03-24T00:16:58.674Z,6.50
2019-03-24T00:20:03.354Z,6.73
2019-03-24T00:23:08.122Z,6.37
2019-03-24T00:26:14.574Z,6.27
2019-03-24T00:29:20.569Z,13.20
2019-03-24T00:32:26.157Z,13.60
2019-03-24T00:35:31.363Z,7.60
2019-03-24T00:38:36.179Z,7.23
2019-03-24T00:41:40.966Z,5.97
2019-03-24T00:44:45.626Z,6.57
2019-03-24T00:47:50.632Z,5.40
2019-03-24T00:50:55.386Z,5.53
2019-03-24T00:54:00.070Z,5.17
2019-03-24T00:57:04.808Z,5.67
2019-03-24T01:00:10.604Z,5.37
2019-03-24T01:03:16.197Z,5.23
2019-03-24T01:06:21.184Z,6.27
2019-03-24T01:09:25.958Z,6.17
2019-03-24T01:12:30.802Z,4.73
2019-03-24T01:15:35.838Z,5.03
2019-03-24T01:18:40.706Z,5.20
2019-03-24T01:21:45.516Z,5.80
2019-03-24T01:24:50.417Z,5.83
2019-03-24T01:27:58.158Z,5.03
2019-03-24T01:31:03.288Z,4.03
2019-03-24T01:34:08.542Z,3.83
2019-03-24T01:37:14.548Z,4.23
2019-03-24T01:40:20.080Z,4.03
2019-03-24T01:43:25.114Z,4.40
2019-03-24T01:46:30.673Z,4.43
2019-03-24T01:49:36.733Z,4.73
2019-03-24T01:52:42.563Z,5.13
2019-03-24T01:55:47.742Z,5.73
2019-03-24T01:58:52.804Z,6.87
2019-03-24T02:02:01.396Z,6.97
2019-03-24T02:05:09.155Z,8.10
2019-03-24T02:08:15.842Z,7.87
2019-03-24T02:11:21.098Z,8.30
2019-03-24T02:14:26.115Z,8.63
2019-03-24T02:17:30.924Z,6.83
2019-03-24T02:20:39.211Z,7.03
2019-03-24T02:23:44.686Z,7.30
2019-03-24T02:26:50.579Z,6.30
2019-03-24T02:29:57.931Z,7.00
2019-03-24T02:33:06.336Z,6.30
2019-03-24T02:36:13.255Z,7.03
2019-03-24T02:39:21.176Z,6.77
2019-03-24T02:42:26.590Z,6.30
2019-03-24T02:45:32.511Z,7.07
2019-03-24T02:48:38.974Z,6.13
2019-03-24T02:51:44.474Z,6.03
2019-03-24T02:54:49.927Z,6.83
2019-03-24T02:57:55.380Z,6.73
2019-03-24T03:01:02.510Z,5.83
2019-03-24T03:04:39.494Z,6.63
2019-03-24T03:08:13.472Z,6.13
2019-03-24T03:11:21.654Z,5.77
2019-03-24T03:14:27.133Z,5.60
2019-03-24T03:17:32.653Z,5.53
2019-03-24T03:20:39.014Z,6.00
2019-03-24T03:23:43.898Z,6.30
2019-03-24T03:26:48.784Z,6.60
2019-03-24T03:29:53.436Z,6.33
2019-03-24T03:32:59.127Z,5.07
2019-03-24T03:36:06.128Z,4.77
2019-03-24T03:39:12.177Z,4.67
2019-03-24T03:42:18.006Z,5.13
2019-03-24T03:45:34.502Z,4.77
2019-03-24T03:48:46.470Z,5.27
2019-03-24T03:51:53.900Z,6.23
2019-03-24T03:54:59.420Z,6.47
2019-03-24T03:58:07.659Z,6.10
2019-03-24T04:01:13.641Z,5.87
2019-03-24T04:04:23.134Z,6.10
2019-03-24T04:07:33.919Z,5.53
2019-03-24T04:10:41.106Z,5.33
2019-03-24T04:13:48.215Z,4.83
2019-03-24T04:17:07.109Z,4.87
2019-03-24T04:20:06.495Z,4.80
2019-03-24T04:23:15.136Z,5.37
2019-03-24T04:26:24.554Z,6.43
2019-03-24T04:29:30.841Z,6.10
2019-03-24T04:32:38.890Z,5.63
2019-03-24T04:35:47.333Z,5.43
2019-03-24T04:38:57.975Z,4.77
2019-03-24T04:42:04.067Z,5.30
2019-03-24T04:45:11.731Z,4.40
2019-03-24T04:48:19.986Z,4.93
2019-03-24T04:51:26.321Z,5.73
2019-03-24T04:54:37.738Z,4.93
2019-03-24T05:15:48.643Z,9.87
2019-03-24T05:19:25.590Z,8.53
2019-03-24T05:28:13.069Z,5.60
2019-03-24T05:31:57.848Z,5.43
2019-03-24T05:48:02.257Z,5.43
2019-03-24T05:51:35.311Z,5.00
2019-03-24T05:55:54.147Z,4.97
2019-03-24T06:16:28.143Z,6.47
2019-03-24T06:29:22.175Z,5.73
2019-03-24T06:42:18.180Z,5.83
2019-03-24T06:46:08.414Z,5.10
2019-03-24T06:49:44.643Z,6.97
2019-03-24T06:53:28.784Z,5.50
2019-03-24T07:00:54.547Z,5.63
2019-03-24T07:04:19.223Z,5.90
2019-03-24T07:12:58.514Z,4.77
2019-03-24T07:16:24.170Z,6.03
2019-03-24T07:19:28.527Z,5.60
2019-03-24T07:22:32.997Z,5.20
2019-03-24T07:25:37.432Z,6.20
2019-03-24T07:28:45.931Z,6.73
2019-03-24T07:31:50.420Z,5.30
2019-03-24T07:34:54.784Z,6.27
2019-03-24T07:37:59.173Z,5.17
2019-03-24T07:41:03.723Z,8.27
2019-03-24T07:44:08.102Z,8.30
2019-03-24T07:47:15.743Z,5.40
2019-03-24T07:50:20.107Z,5.03
2019-03-24T07:53:24.568Z,5.00
2019-03-24T07:56:28.926Z,5.10
2019-03-24T07:59:33.372Z,5.40
2019-03-24T08:02:37.710Z,4.30
2019-03-24T08:05:42.066Z,4.47
2019-03-24T08:08:46.462Z,4.33
2019-03-24T08:11:50.929Z,4.87
2019-03-24T08:14:55.316Z,6.10
2019-03-24T08:17:59.683Z,6.73
2019-03-24T08:21:04.139Z,5.00
2019-03-24T08:24:08.499Z,4.33
2019-03-24T08:27:12.869Z,4.87
2019-03-24T08:30:24.385Z,4.60
2019-03-24T08:33:28.760Z,4.40
2019-03-24T08:36:33.131Z,3.70
2019-03-24T08:39:37.589Z,3.90
2019-03-24T08:42:42.139Z,4.33
2019-03-24T08:45:46.500Z,6.57
2019-03-24T08:48:50.849Z,4.67
2019-03-24T08:51:55.186Z,3.50
2019-03-24T08:54:59.923Z,3.83
2019-03-24T08:58:04.584Z,3.60
2019-03-24T09:01:08.951Z,3.80
2019-03-24T09:04:13.358Z,4.07
2019-03-24T09:07:17.736Z,4.00
2019-03-24T09:10:22.272Z,3.83
2019-03-24T09:13:26.690Z,4.67
2019-03-24T09:16:31.062Z,4.27
2019-03-24T09:19:35.431Z,3.77
2019-03-24T09:22:39.802Z,3.90
2019-03-24T09:25:44.428Z,3.60
2019-03-24T09:28:48.800Z,3.57
2019-03-24T09:31:53.280Z,3.57
2019-03-24T09:34:57.636Z,3.87
2019-03-24T09:38:02.087Z,3.97
2019-03-24T09:41:06.522Z,3.33
2019-03-24T09:44:10.908Z,3.40
2019-03-24T09:47:15.268Z,3.20
2019-03-24T09:50:19.720Z,3.33
2019-03-24T09:53:24.198Z,3.43
2019-03-24T09:56:28.582Z,4.13
2019-03-24T09:59:32.967Z,3.43
2019-03-24T10:02:37.306Z,3.43
2019-03-24T10:05:41.668Z,3.23
2019-03-24T10:08:47.253Z,2.80
2019-03-24T10:11:52.050Z,2.70
2019-03-24T10:14:56.415Z,3.03
2019-03-24T10:18:00.795Z,4.30
2019-03-24T10:21:05.170Z,2.80
2019-03-24T10:24:09.553Z,2.90
2019-03-24T10:27:13.931Z,3.27
2019-03-24T10:30:18.422Z,3.03
2019-03-24T10:33:22.801Z,2.97
2019-03-24T10:36:27.168Z,3.13
2019-03-24T10:39:32.060Z,2.50
2019-03-24T10:42:36.635Z,2.67
2019-03-24T10:45:41.025Z,2.20
2019-03-24T10:48:45.453Z,2.40
2019-03-24T10:51:49.818Z,2.50
2019-03-24T10:54:54.209Z,2.53
2019-03-24T10:57:58.721Z,3.57
2019-03-24T11:01:03.200Z,2.90
2019-03-24T11:04:07.677Z,2.90
2019-03-24T11:07:12.065Z,3.07
2019-03-24T11:10:16.496Z,2.23
2019-03-24T11:13:20.836Z,2.47
2019-03-24T11:16:25.363Z,3.37
2019-03-24T11:19:35.620Z,3.20
2019-03-24T11:22:35.860Z,2.80
2019-03-24T11:25:40.287Z,3.70
2019-03-24T11:28:44.648Z,2.17
2019-03-24T11:31:49.021Z,2.13
2019-03-24T11:34:53.397Z,1.97
2019-03-24T11:37:57.772Z,2.43
2019-03-24T11:41:02.241Z,2.50
2019-03-24T11:44:06.748Z,2.60
2019-03-24T11:47:11.117Z,2.27
2019-03-24T11:50:15.758Z,2.17
2019-03-24T11:53:20.121Z,1.80
2019-03-24T11:56:24.493Z,2.83
2019-03-24T11:59:28.933Z,2.10
2019-03-24T12:02:33.289Z,2.17
2019-03-24T12:05:37.889Z,2.53
2019-03-24T12:08:42.428Z,2.07
2019-03-24T12:11:46.791Z,2.33
2019-03-24T12:14:51.142Z,1.63
2019-03-24T12:17:55.580Z,2.07
2019-03-24T12:21:00.034Z,2.63
2019-03-24T12:24:04.505Z,2.10
2019-03-24T12:27:08.872Z,2.67
2019-03-24T12:30:13.609Z,2.03
2019-03-24T12:33:17.979Z,2.40
2019-03-24T12:36:22.344Z,2.67
2019-03-24T12:39:26.698Z,2.90
2019-03-24T12:42:31.094Z,2.60
2019-03-24T12:45:35.443Z,3.60
2019-03-24T12:48:39.819Z,3.57
2019-03-24T12:51:44.208Z,2.50
2019-03-24T12:54:48.640Z,2.53
2019-03-24T12:57:53.006Z,2.57
2019-03-24T13:00:57.366Z,2.17
2019-03-24T13:04:01.743Z,2.53
2019-03-24T13:07:06.239Z,2.27
2019-03-24T13:10:11.815Z,2.87
2019-03-24T13:13:16.366Z,2.13
2019-03-24T13:16:20.782Z,2.60
2019-03-24T13:19:25.251Z,2.33
2019-03-24T13:22:29.634Z,3.00
2019-03-24T13:25:36.261Z,1.77
2019-03-24T13:28:40.255Z,2.27
2019-03-24T13:31:44.613Z,2.20
2019-03-24T13:34:48.968Z,2.13
2019-03-24T13:37:53.356Z,1.97
2019-03-24T13:40:57.718Z,2.20
2019-03-24T13:44:02.180Z,2.10
2019-03-24T13:47:06.709Z,2.23
2019-03-24T13:50:11.304Z,2.00
2019-03-24T13:53:15.774Z,2.40
2019-03-24T13:56:20.232Z,2.40
2019-03-24T13:59:24.600Z,2.40
2019-03-24T14:02:28.955Z,2.03
2019-03-24T14:05:33.404Z,2.07
2019-03-24T14:08:37.766Z,2.13
2019-03-24T14:11:42.237Z,1.90
2019-03-24T14:14:46.635Z,1.90
2019-03-24T14:17:51.066Z,2.67
2019-03-24T14:20:55.452Z,2.30
2019-03-24T14:23:59.909Z,2.00
2019-03-24T14:27:04.457Z,2.27
2019-03-24T14:30:10.127Z,2.80
2019-03-24T14:33:15.105Z,2.50
2019-03-24T14:36:19.473Z,2.60
2019-03-24T14:39:23.963Z,2.13
2019-03-24T14:42:28.447Z,2.73
2019-03-24T14:45:32.881Z,2.60
2019-03-24T14:48:37.280Z,2.73
2019-03-24T14:51:41.682Z,2.27
2019-03-24T14:54:46.053Z,2.00
2019-03-24T14:57:50.599Z,2.40
2019-03-24T15:00:54.980Z,2.40
2019-03-24T15:03:59.389Z,2.30
2019-03-24T15:07:03.727Z,2.67
2019-03-24T15:10:08.934Z,2.20
2019-03-24T15:13:13.382Z,2.50
2019-03-24T15:16:17.753Z,2.70
2019-03-24T15:19:22.138Z,2.63
2019-03-24T15:22:26.568Z,2.00
2019-03-24T15:25:31.030Z,2.27
2019-03-24T15:28:35.514Z,2.30
2019-03-24T15:31:39.899Z,2.00
2019-03-24T15:34:44.299Z,2.60
2019-03-24T15:37:48.610Z,3.07
2019-03-24T15:40:53.076Z,2.43
2019-03-24T15:43:57.505Z,2.80
2019-03-24T15:47:01.885Z,2.10
2019-03-24T15:50:06.805Z,2.50
2019-03-24T15:53:11.290Z,1.77
2019-03-24T15:56:15.681Z,2.43
2019-03-24T15:59:20.049Z,2.10
2019-03-24T16:02:24.491Z,2.80
2019-03-24T16:05:28.888Z,2.20
2019-03-24T16:08:33.330Z,2.47
2019-03-24T16:11:37.833Z,2.27
2019-03-24T16:14:42.209Z,2.30
2019-03-24T16:17:46.577Z,2.17
2019-03-24T16:20:50.933Z,2.43
2019-03-24T16:23:55.311Z,2.53
2019-03-24T16:26:59.827Z,2.90
2019-03-24T16:30:04.693Z,3.20
2019-03-24T16:33:09.260Z,2.20
2019-03-24T16:36:13.699Z,31.13
2019-03-24T16:39:18.072Z,35.80
2019-03-24T16:42:22.452Z,24.03
2019-03-24T16:45:26.788Z,24.77
2019-03-24T16:48:36.734Z,12.77
2019-03-24T16:51:38.789Z,11.20
2019-03-24T16:54:43.494Z,16.10
2019-03-24T16:57:49.770Z,13.70
2019-03-24T17:00:54.036Z,6.13
2019-03-24T17:03:58.400Z,7.03
2019-03-24T17:07:02.850Z,8.00
2019-03-24T17:10:07.703Z,4.00
2019-03-24T17:13:12.083Z,4.43
2019-03-24T17:16:16.447Z,8.03
2019-03-24T17:19:20.880Z,5.37
2019-03-24T17:22:25.257Z,4.23
2019-03-24T17:25:29.681Z,12.47
2019-03-24T17:28:34.032Z,9.63
2019-03-24T17:31:46.809Z,3.57
2019-03-24T17:34:51.249Z,11.27
2019-03-24T17:37:55.688Z,11.67
2019-03-24T17:41:00.589Z,7.80
2019-03-24T17:44:05.063Z,6.77
2019-03-24T17:47:09.406Z,13.07
2019-03-24T17:50:14.208Z,5.13
2019-03-24T17:53:18.588Z,5.63
2019-03-24T17:56:22.974Z,5.83
2019-03-24T17:59:27.316Z,6.77
2019-03-24T18:02:31.691Z,5.00
2019-03-24T18:05:36.138Z,4.77
2019-03-24T18:08:42.852Z,7.43
2019-03-24T18:11:48.863Z,7.70
2019-03-24T18:14:57.125Z,6.20
2019-03-24T18:18:18.285Z,5.63
2019-03-24T18:21:25.901Z,3.67
2019-03-24T18:24:31.608Z,3.43
2019-03-24T18:27:36.328Z,3.97
2019-03-24T18:30:42.200Z,3.73
2019-03-24T18:33:48.771Z,3.70
2019-03-24T18:36:57.085Z,3.77
2019-03-24T18:40:08.850Z,3.23
2019-03-24T19:01:49.081Z,5.30
2019-03-24T19:13:45.645Z,4.03
2019-03-24T19:35:17.156Z,6.47
2019-03-24T19:43:22.005Z,6.00
2019-03-24T22:54:17.377Z,2.40
2019-03-24T22:58:32.839Z,2.77
2019-03-24T23:06:11.754Z,2.93
2019-03-24T23:09:37.260Z,3.13
2019-03-24T23:12:45.263Z,3.77
2019-03-24T23:15:50.291Z,3.30
2019-03-24T23:18:54.838Z,3.60
2019-03-24T23:21:59.209Z,2.53
2019-03-24T23:25:03.791Z,2.27
2019-03-24T23:28:08.348Z,3.23
2019-03-24T23:31:12.729Z,3.13
2019-03-24T23:34:17.189Z,3.37
2019-03-24T23:37:22.003Z,3.27
2019-03-24T23:40:26.547Z,3.83
2019-03-24T23:43:31.069Z,2.97
2019-03-24T23:46:35.456Z,3.57
2019-03-24T23:49:39.824Z,3.33
2019-03-24T23:52:44.198Z,4.63
2019-03-24T23:55:48.681Z,2.80
2019-03-24T23:58:53.146Z,3.37
